createdAt,value
2022-11-26T00:26:28.046Z,7.32
2022-11-26T00:55:34.094Z,7.32
2022-11-26T01:24:25.852Z,7.4
2022-11-26T01:53:26.905Z,7.49
2022-11-26T02:22:24.614Z,7.53
2022-11-26T02:51:35.139Z,7.53
2022-11-26T03:19:52.412Z,7.44
2022-11-26T03:48:54.162Z,7.51
2022-11-26T04:17:57.137Z,7.51
2022-11-26T04:46:58.044Z,7.61
2022-11-26T05:15:55.550Z,7.62
2022-11-26T05:44:58.472Z,7.62
2022-11-26T06:14:03.383Z,7.64
2022-11-26T06:42:53.011Z,7.52
2022-11-26T07:11:55.271Z,7.55
2022-11-26T07:40:52.310Z,7.58
2022-11-26T08:10:00.976Z,9.16
2022-11-26T08:39:06.133Z,8.6
2022-11-26T09:07:57.465Z,8.44
2022-11-26T09:36:48.136Z,8.64
2022-11-26T10:05:59.176Z,8.9
2022-11-26T10:34:59.465Z,9.54
2022-11-26T11:04:09.314Z,9.39
2022-11-26T11:32:23.783Z,9.44
2022-11-26T12:01:26.413Z,9.42
2022-11-26T12:30:28.746Z,9.61
2022-11-26T12:59:26.749Z,9.56
2022-11-26T13:28:25.723Z,9.47
2022-11-26T13:57:27.130Z,9.26
2022-11-26T14:26:27.823Z,9.25
2022-11-26T14:55:32.114Z,9.01
2022-11-26T15:24:28.253Z,8.49
2022-11-26T15:53:28.206Z,8.09
2022-11-26T16:22:29.059Z,7.93
2022-11-26T16:51:06.022Z,8
2022-11-26T17:20:05.050Z,8.03
2022-11-26T17:49:06.531Z,8.04
2022-11-26T18:18:07.818Z,8.02
2022-11-26T18:47:09.706Z,7.95
2022-11-26T19:15:44.949Z,7.95
2022-11-26T19:44:47.999Z,7.91
2022-11-26T20:13:47.405Z,7.57
2022-11-26T20:42:45.395Z,7.52
2022-11-26T21:11:45.918Z,7.3
2022-11-26T21:40:52.035Z,7.19
2022-11-26T22:09:50.613Z,7.12
2022-11-26T22:38:51.923Z,7.04
2022-11-26T23:07:51.994Z,6.95
2022-11-26T23:36:45.732Z,6.73
